TimeMDT,TemperatureF,Dew PointF,Humidity,Sea Level PressureIn,VisibilityMPH,Wind Direction,Wind SpeedMPH,Gust SpeedMPH,PrecipitationIn,Events,Conditions,WindDirDegrees,DateUTC
12:53 AM,64.9,37.9,37,29.93,10.0,West,9.2,-,N/A,,Clear,260,2013-08-19 06:53:00
1:53 AM,63.0,37.9,40,29.93,10.0,West,4.6,-,N/A,,Clear,260,2013-08-19 07:53:00
2:53 AM,57.0,37.9,49,29.94,10.0,WNW,4.6,-,N/A,,Clear,290,2013-08-19 08:53:00
3:53 AM,59.0,39.0,48,29.94,10.0,West,10.4,-,N/A,,Clear,260,2013-08-19 09:53:00
4:53 AM,59.0,37.9,46,29.94,10.0,West,10.4,-,N/A,,Clear,260,2013-08-19 10:53:00
5:53 AM,60.1,39.0,46,29.95,10.0,WSW,12.7,-,N/A,,Clear,250,2013-08-19 11:53:00
6:53 AM,54.0,37.9,55,29.97,10.0,WNW,6.9,-,N/A,,Clear,300,2013-08-19 12:53:00
7:53 AM,61.0,39.9,46,29.97,10.0,NW,6.9,-,N/A,,Clear,320,2013-08-19 13:53:00
8:53 AM,70.0,41.0,35,29.98,10.0,NW,11.5,-,N/A,,Clear,320,2013-08-19 14:53:00
9:53 AM,79.0,39.0,24,29.95,10.0,West,15.0,-,N/A,,Clear,280,2013-08-19 15:53:00
10:53 AM,82.0,37.9,21,29.93,10.0,WNW,10.4,-,N/A,,Clear,290,2013-08-19 16:53:00
11:53 AM,86.0,39.0,19,29.91,10.0,West,10.4,19.6,N/A,,Clear,280,2013-08-19 17:53:00
12:53 PM,91.9,28.9,11,29.88,10.0,West,25.3,29.9,N/A,,Clear,280,2013-08-19 18:53:00
1:53 PM,93.9,28.9,10,29.87,10.0,West,17.3,25.3,N/A,,Clear,270,2013-08-19 19:53:00
2:53 PM,93.9,21.9,7,29.86,10.0,WNW,11.5,29.9,N/A,,Clear,300,2013-08-19 20:53:00
3:53 PM,96.1,25.0,8,29.81,10.0,WNW,20.7,32.2,N/A,,Clear,290,2013-08-19 21:53:00
4:53 PM,95.0,26.1,9,29.80,10.0,West,20.7,34.5,N/A,,Clear,270,2013-08-19 22:53:00
5:53 PM,93.9,27.0,9,29.79,10.0,WNW,17.3,26.5,N/A,,Clear,290,2013-08-19 23:53:00
6:53 PM,91.9,26.1,9,29.79,10.0,West,11.5,-,N/A,,Clear,280,2013-08-20 00:53:00
7:53 PM,84.9,30.0,14,29.80,10.0,West,4.6,-,N/A,,Clear,280,2013-08-20 01:53:00
8:53 PM,75.9,28.0,17,29.81,10.0,WSW,6.9,-,N/A,,Clear,250,2013-08-20 02:53:00
9:53 PM,75.9,27.0,16,29.83,10.0,South,5.8,-,N/A,,Clear,170,2013-08-20 03:53:00
10:53 PM,70.0,27.0,20,29.86,10.0,WSW,8.1,-,N/A,,Clear,250,2013-08-20 04:53:00
11:53 PM,72.0,27.0,19,29.85,10.0,West,10.4,-,N/A,,Clear,280,2013-08-20 05:53:00